• pl
  • eng

Awiacja
NEWS
last updated: 12.09.2019 14:49<\/div>
Dear users,
We would like to inform you that from September 2nd a test form of the GAFOR forecast is available on our webpage. Please send your comments and suggestions to gafor@imgw.pl that will contribute to product development.
Click on the bold red name to decode a message. 16:01 10.07.2020
  • WIND
  • SIGNIFICANT EURO
  • SIGNIFICANT
  • SIGMET
  • AIRMET
  • TAF FC
  • TAF FT
  • METAR GG30
  • METAR GG00


METAR EPBY 101400Z 09007KT CAVOK 23/18 Q1006=

METAR EPGD 101400Z 14010KT 9999 FEW009 18/16 Q1007 =

METAR EPKK 101400Z 22014KT 190V250 CAVOK 30/16 Q1012 =

METAR EPKT 101400Z 21017KT 180V240 CAVOK 30/14 Q1012 =

METAR EPLB 101400Z 22012KT CAVOK 29/17 Q1013 =

METAR EPLL 101400Z VRB03KT 9999 FEW033CB 28/18 Q1009 RETS =

METAR EPMO 101400Z 16009KT 130V200 9999 FEW048CB 27/17 Q1009 =

METAR EPPO 101400Z 18011KT 150V230 9999 FEW043CB 29/15 Q1006 =

METAR EPRA 101400Z 21011KT CAVOK 30/16 Q1011=

METAR EPRZ 101400Z 19016KT CAVOK 29/16 Q1014 =

METAR EPSC 101400Z 19008KT 150V230 9999 SCT023 BKN032 23/18 Q1005 =

METAR EPSY 101400Z 25007KT 180V300 9999 FEW038 25/16 Q1009=

METAR EPWA 101400Z 17008KT 140V200 9999 FEW046CB 27/19 Q1010 RETS
NOSIG=

METAR EPWR 101400Z 21010G20KT 180V240 CAVOK 30/15 Q1008 =

METAR EPZG 101400Z 22019G33KT CAVOK 30/16 Q1006 =
Awiacja.imgw.pl jest pogodowym serwisem informacyjnym
Instytutu Meteorologii i Gospodarki Wodnej Państwowego Instytutu Badawczego.
Copyright IMGW PIB 2009-2019© Wszelkie prawa zastrzeżone.